Time;durP1;ratioP1;P1;durP2;ratioP2;P2;SDS_P1;SDS_P2;PMS_P1;PMS_P2;Temp;Humidity;BMP_temperature;BMP_pressure;BME280_temperature;BME280_humidity;BME280_pressure;Samples;Min_cycle;Max_cycle;Signal;HPM_P1;HPM_P2
2021/04/30 04:37:00;;;;;;;3.13;2.28;;;;;;;;;;6156465;23;20016;-74
2021/04/30 04:39:38;;;;;;;3.10;2.17;;;;;;;;;;6155589;23;20346;-75
2021/04/30 04:42:16;;;;;;;3.75;2.20;;;;;;;;;;6155653;23;20048;-75
2021/04/30 04:44:42;;;;;;;2.67;2.03;;;;;;;;;;6155285;23;20029;-74
2021/04/30 04:47:08;;;;;;;3.58;2.35;;;;;;;;;;6154940;23;20005;-74
2021/04/30 04:49:37;;;;;;;4.75;2.38;;;;;;;;;;6155543;23;20005;-74
2021/04/30 04:52:06;;;;;;;3.03;2.30;;;;;;;;;;6155067;23;20009;-74
2021/04/30 04:54:38;;;;;;;6.13;2.50;;;;;;;;;;6154356;23;20084;-74
2021/04/30 04:57:07;;;;;;;4.30;2.45;;;;;;;;;;6154401;23;20009;-72
2021/04/30 04:59:39;;;;;;;3.10;2.42;;;;;;;;;;6155082;23;20012;-71
2021/04/30 05:02:09;;;;;;;4.65;2.38;;;;;;;;;;6154095;23;20005;-72
2021/04/30 05:04:36;;;;;;;4.35;2.47;;;;;;;;;;6152362;23;20006;-72
2021/04/30 05:07:10;;;;;;;4.32;2.53;;;;;;;;;;6152673;23;20504;-72
2021/04/30 05:09:41;;;;;;;4.22;2.90;;;;;;;;;;6152693;23;20534;-72
2021/04/30 05:12:10;;;;;;;6.85;3.30;;;;;;;;;;6151379;23;20113;-71
2021/04/30 05:14:39;;;;;;;4.00;2.90;;;;;;;;;;6152019;23;20001;-72
2021/04/30 05:17:05;;;;;;;3.55;2.50;;;;;;;;;;6153605;23;20002;-71
2021/04/30 05:19:33;;;;;;;3.75;3.10;;;;;;;;;;6151564;23;20308;-70
2021/04/30 05:22:01;;;;;;;3.20;2.60;;;;;;;;;;6153754;23;20033;-71
2021/04/30 05:24:32;;;;;;;3.95;2.78;;;;;;;;;;6154235;23;20001;-70
2021/04/30 05:27:02;;;;;;;5.70;3.20;;;;;;;;;;6155111;23;20060;-71
2021/04/30 05:29:32;;;;;;;5.30;3.70;;;;;;;;;;6153997;23;20011;-71
2021/04/30 05:32:01;;;;;;;4.83;3.57;;;;;;;;;;6155002;23;20072;-69
2021/04/30 05:34:33;;;;;;;4.28;3.30;;;;;;;;;;6154595;23;20350;-71
2021/04/30 05:36:59;;;;;;;3.83;3.08;;;;;;;;;;6153020;23;20006;-72
2021/04/30 05:39:29;;;;;;;5.10;3.40;;;;;;;;;;6151670;23;20121;-72
2021/04/30 05:41:55;;;;;;;6.53;3.33;;;;;;;;;;6153722;23;20067;-70
2021/04/30 05:44:21;;;;;;;7.95;4.22;;;;;;;;;;6153999;23;20076;-70
2021/04/30 05:46:56;;;;;;;5.07;3.55;;;;;;;;;;6154617;23;20028;-71
2021/04/30 05:49:26;;;;;;;5.35;3.90;;;;;;;;;;6155581;23;20010;-70
2021/04/30 05:51:55;;;;;;;6.22;4.07;;;;;;;;;;6153940;23;20009;-71
2021/04/30 05:54:28;;;;;;;7.90;3.92;;;;;;;;;;6153656;23;20012;-72
2021/04/30 05:56:56;;;;;;;6.38;4.13;;;;;;;;;;6154758;23;20005;-71
2021/04/30 05:59:22;;;;;;;6.13;4.15;;;;;;;;;;6156102;23;20021;-70
2021/04/30 06:01:48;;;;;;;6.82;5.10;;;;;;;;;;6156350;23;20001;-69
2021/04/30 06:04:25;;;;;;;6.75;4.70;;;;;;;;;;6154736;23;20327;-73
2021/04/30 06:06:54;;;;;;;8.25;5.28;;;;;;;;;;6155899;23;20339;-71
2021/04/30 06:09:20;;;;;;;9.55;5.45;;;;;;;;;;6155983;23;20406;-71
2021/04/30 06:11:49;;;;;;;8.75;5.80;;;;;;;;;;6154761;23;20010;-69
2021/04/30 06:14:15;;;;;;;10.32;6.70;;;;;;;;;;6155959;23;20005;-68
2021/04/30 06:16:41;;;;;;;10.50;7.97;;;;;;;;;;6155865;23;20327;-69
2021/04/30 06:19:07;;;;;;;8.60;6.35;;;;;;;;;;6153973;23;20037;-70
2021/04/30 06:21:33;;;;;;;11.93;6.93;;;;;;;;;;6155587;23;20008;-71
2021/04/30 06:24:01;;;;;;;10.60;7.70;;;;;;;;;;6154684;23;20304;-69
2021/04/30 06:26:27;;;;;;;10.75;7.20;;;;;;;;;;6155772;23;20012;-69
2021/04/30 06:28:53;;;;;;;10.38;6.43;;;;;;;;;;6154547;23;20338;-70
2021/04/30 06:31:23;;;;;;;9.02;7.03;;;;;;;;;;6154700;23;20009;-69
2021/04/30 06:33:49;;;;;;;10.60;6.80;;;;;;;;;;6153804;23;20335;-71
2021/04/30 06:36:18;;;;;;;10.73;7.20;;;;;;;;;;6154201;23;20057;-70
2021/04/30 06:38:45;;;;;;;11.77;6.55;;;;;;;;;;6156105;23;20008;-69
2021/04/30 06:41:11;;;;;;;16.20;8.38;;;;;;;;;;6154505;23;20072;-69
2021/04/30 06:43:38;;;;;;;11.70;7.00;;;;;;;;;;6154270;23;20005;-69
2021/04/30 06:46:04;;;;;;;10.38;7.10;;;;;;;;;;6155854;23;20002;-69
2021/04/30 06:48:30;;;;;;;10.85;7.35;;;;;;;;;;6154450;23;20009;-68
2021/04/30 06:50:59;;;;;;;11.05;6.53;;;;;;;;;;6154400;23;20012;-70
2021/04/30 06:53:28;;;;;;;12.15;7.90;;;;;;;;;;6155939;23;20084;-69
2021/04/30 06:56:00;;;;;;;11.02;7.47;;;;;;;;;;6154604;23;20072;-69
2021/04/30 06:58:26;;;;;;;10.05;7.18;;;;;;;;;;6154041;23;20084;-68
2021/04/30 07:00:55;;;;;;;12.63;7.20;;;;;;;;;;6154297;23;20423;-69
2021/04/30 07:03:21;;;;;;;12.45;7.82;;;;;;;;;;6154487;23;20033;-68
2021/04/30 07:05:47;;;;;;;10.93;6.97;;;;;;;;;;6154352;23;20339;-67
2021/04/30 07:08:13;;;;;;;13.55;7.45;;;;;;;;;;6154417;23;20335;-69
2021/04/30 07:10:39;;;;;;;11.45;7.78;;;;;;;;;;6157321;23;20038;-68
2021/04/30 07:13:12;;;;;;;12.70;7.60;;;;;;;;;;6156272;23;20009;-68
2021/04/30 07:15:38;;;;;;;15.38;10.93;;;;;;;;;;6155919;23;20006;-69
2021/04/30 07:18:04;;;;;;;17.50;11.93;;;;;;;;;;6155815;23;20001;-69
2021/04/30 07:20:34;;;;;;;33.70;16.15;;;;;;;;;;6156201;23;20339;-69
2021/04/30 07:23:01;;;;;;;557.42;199.80;;;;;;;;;;6157354;23;20013;-68
2021/04/30 07:25:27;;;;;;;158.13;81.07;;;;;;;;;;6155629;23;20005;-67
2021/04/30 07:27:53;;;;;;;51.22;30.95;;;;;;;;;;6155710;23;20006;-69
2021/04/30 07:30:22;;;;;;;81.30;58.05;;;;;;;;;;6157664;23;20060;-69
2021/04/30 07:32:49;;;;;;;284.85;117.75;;;;;;;;;;6156024;23;20029;-68
2021/04/30 07:35:15;;;;;;;455.35;194.30;;;;;;;;;;6157349;23;20013;-68
2021/04/30 07:37:41;;;;;;;497.35;241.93;;;;;;;;;;6157295;23;20029;-68
2021/04/30 07:40:11;;;;;;;53.15;28.27;;;;;;;;;;6156102;23;20013;-70
2021/04/30 07:42:37;;;;;;;89.47;52.73;;;;;;;;;;6157486;23;20025;-69
2021/04/30 07:45:04;;;;;;;39.72;26.05;;;;;;;;;;6157289;23;20001;-67
2021/04/30 07:47:30;;;;;;;22.77;14.75;;;;;;;;;;6155747;23;20013;-68
2021/04/30 07:49:59;;;;;;;21.05;13.95;;;;;;;;;;6157253;23;20001;-69
2021/04/30 07:52:25;;;;;;;20.05;13.70;;;;;;;;;;6157152;23;20005;-68
2021/04/30 07:54:51;;;;;;;19.02;11.90;;;;;;;;;;6157190;23;20009;-69
2021/04/30 07:57:17;;;;;;;19.83;10.98;;;;;;;;;;6157119;23;20308;-70
2021/04/30 07:59:46;;;;;;;23.15;13.38;;;;;;;;;;6155789;23;20012;-70
2021/04/30 08:02:18;;;;;;;19.83;11.43;;;;;;;;;;6157193;23;19998;-71
2021/04/30 08:04:49;;;;;;;43.38;22.55;;;;;;;;;;6156024;23;20037;-68
2021/04/30 08:07:16;;;;;;;55.47;29.30;;;;;;;;;;6155530;23;20092;-71
2021/04/30 08:09:48;;;;;;;25.35;14.80;;;;;;;;;;6155850;23;20005;-70
2021/04/30 08:12:22;;;;;;;17.65;10.20;;;;;;;;;;6157039;23;20020;-71
2021/04/30 08:14:48;;;;;;;17.58;10.13;;;;;;;;;;6155258;23;20009;-70
2021/04/30 08:17:14;;;;;;;17.52;9.98;;;;;;;;;;6157153;23;20033;-70
2021/04/30 08:19:40;;;;;;;14.95;10.35;;;;;;;;;;6155780;23;20477;-69
2021/04/30 08:22:07;;;;;;;16.73;10.52;;;;;;;;;;6156556;23;19997;-71
2021/04/30 08:24:33;;;;;;;16.17;9.88;;;;;;;;;;6155561;23;20002;-71
2021/04/30 08:27:06;;;;;;;20.17;10.27;;;;;;;;;;6156867;23;20006;-70
2021/04/30 08:29:35;;;;;;;21.63;11.40;;;;;;;;;;6157282;23;20001;-69
2021/04/30 08:32:09;;;;;;;14.68;10.13;;;;;;;;;;6156691;23;19998;-70
2021/04/30 08:34:34;;;;;;;19.60;11.35;;;;;;;;;;6156678;23;20021;-70
2021/04/30 08:37:07;;;;;;;22.02;13.48;;;;;;;;;;6155571;23;20411;-71
2021/04/30 08:39:33;;;;;;;19.88;12.35;;;;;;;;;;6155543;23;20036;-69
2021/04/30 08:41:59;;;;;;;23.13;13.40;;;;;;;;;;6156749;23;20005;-69
2021/04/30 08:44:29;;;;;;;20.58;12.07;;;;;;;;;;6157319;23;20055;-71
2021/04/30 08:46:55;;;;;;;18.83;12.30;;;;;;;;;;6155010;23;20088;-71
2021/04/30 08:49:21;;;;;;;18.70;11.00;;;;;;;;;;6155187;23;20013;-70
2021/04/30 08:51:49;;;;;;;17.73;11.10;;;;;;;;;;6156732;23;20001;-70
2021/04/30 08:54:16;;;;;;;19.15;11.15;;;;;;;;;;6156416;23;20029;-69
2021/04/30 08:56:50;;;;;;;20.02;10.98;;;;;;;;;;6155056;23;20052;-69
2021/04/30 08:59:16;;;;;;;35.60;13.98;;;;;;;;;;6154958;23;20001;-69
2021/04/30 09:01:42;;;;;;;20.92;12.07;;;;;;;;;;6156988;23;20002;-70
2021/04/30 09:04:11;;;;;;;21.48;13.77;;;;;;;;;;6156985;23;20008;-70
2021/04/30 09:06:41;;;;;;;16.35;11.23;;;;;;;;;;6155239;23;20009;-70
2021/04/30 09:09:10;;;;;;;17.77;12.00;;;;;;;;;;6156459;23;20009;-69
2021/04/30 09:11:41;;;;;;;16.42;10.90;;;;;;;;;;6156540;23;20033;-68
2021/04/30 09:14:22;;;;;;;22.52;12.60;;;;;;;;;;6154837;23;20106;-69
2021/04/30 09:16:58;;;;;;;19.20;12.80;;;;;;;;;;6156470;23;20001;-69
2021/04/30 09:19:31;;;;;;;16.27;10.57;;;;;;;;;;6156365;23;20367;-70
2021/04/30 09:21:58;;;;;;;12.02;8.23;;;;;;;;;;6155153;23;20005;-69
2021/04/30 09:24:25;;;;;;;9.75;7.25;;;;;;;;;;6156694;23;20012;-71
2021/04/30 09:26:51;;;;;;;12.60;7.72;;;;;;;;;;6156395;23;20008;-71
2021/04/30 09:29:21;;;;;;;13.13;7.68;;;;;;;;;;6155964;23;20009;-73
2021/04/30 09:31:48;;;;;;;10.15;7.68;;;;;;;;;;6156565;23;20002;-73
2021/04/30 09:34:18;;;;;;;11.00;6.75;;;;;;;;;;6154405;23;20328;-75
2021/04/30 09:36:54;;;;;;;10.55;6.75;;;;;;;;;;6154712;23;20009;-72
2021/04/30 09:39:20;;;;;;;7.72;5.00;;;;;;;;;;6156281;23;20458;-73
2021/04/30 09:42:07;;;;;;;10.63;4.97;;;;;;;;;;6154497;23;20005;-75
2021/04/30 09:44:34;;;;;;;6.88;4.78;;;;;;;;;;6154393;23;20013;-73
2021/04/30 09:47:14;;;;;;;6.97;4.88;;;;;;;;;;6156144;23;20012;-73
2021/04/30 09:49:40;;;;;;;8.40;5.15;;;;;;;;;;6155064;23;20005;-72
2021/04/30 09:52:15;;;;;;;7.05;4.40;;;;;;;;;;6154506;23;20445;-71
2021/04/30 09:54:42;;;;;;;6.40;4.40;;;;;;;;;;6154514;23;20060;-71
2021/04/30 09:57:15;;;;;;;5.20;3.90;;;;;;;;;;6155936;23;20076;-73
2021/04/30 09:59:45;;;;;;;5.50;4.05;;;;;;;;;;6154775;23;20013;-72
2021/04/30 10:02:17;;;;;;;5.78;3.50;;;;;;;;;;6156117;23;20128;-71
2021/04/30 10:04:45;;;;;;;5.53;3.63;;;;;;;;;;6154708;23;20002;-72
2021/04/30 10:07:18;;;;;;;8.77;3.72;;;;;;;;;;6155807;23;20053;-72
2021/04/30 10:09:45;;;;;;;9.60;4.97;;;;;;;;;;6156304;23;20081;-72
2021/04/30 10:12:24;;;;;;;7.38;4.10;;;;;;;;;;6154479;23;20006;-72
2021/04/30 10:14:53;;;;;;;5.82;3.45;;;;;;;;;;6154227;23;20002;-74
2021/04/30 10:17:20;;;;;;;7.40;3.70;;;;;;;;;;6155298;23;20028;-72
2021/04/30 10:19:47;;;;;;;6.90;3.90;;;;;;;;;;6154533;23;20002;-73
2021/04/30 10:22:20;;;;;;;6.18;4.20;;;;;;;;;;6154746;23;20422;-74
2021/04/30 10:25:01;;;;;;;6.75;4.40;;;;;;;;;;6155915;23;19998;-72
2021/04/30 10:27:34;;;;;;;9.75;7.20;;;;;;;;;;6154568;23;20005;-72
2021/04/30 10:30:03;;;;;;;5.53;3.40;;;;;;;;;;6153874;23;20340;-72
2021/04/30 10:32:42;;;;;;;7.55;3.97;;;;;;;;;;6154287;23;20012;-73
2021/04/30 10:35:12;;;;;;;5.47;4.00;;;;;;;;;;6156245;23;20025;-73
2021/04/30 10:37:52;;;;;;;7.85;4.28;;;;;;;;;;6153736;23;20008;-73
2021/04/30 10:40:22;;;;;;;9.77;4.95;;;;;;;;;;6153953;23;20001;-71
2021/04/30 10:42:51;;;;;;;6.47;4.80;;;;;;;;;;6154373;23;20014;-71
2021/04/30 10:45:18;;;;;;;6.15;4.90;;;;;;;;;;6155679;23;20017;-71
2021/04/30 10:48:07;;;;;;;7.55;4.60;;;;;;;;;;6156392;23;20430;-71
2021/04/30 10:50:34;;;;;;;7.57;4.93;;;;;;;;;;6155599;23;20009;-70
2021/04/30 10:53:25;;;;;;;6.72;4.55;;;;;;;;;;6156310;23;20040;-70
2021/04/30 10:55:51;;;;;;;;;;;;;;;;;;6156816;23;20080;-70
2021/04/30 10:58:45;;;;;;;9.40;6.28;;;;;;;;;;6157478;23;19938;-71
2021/04/30 11:01:24;;;;;;;25.85;16.15;;;;;;;;;;6155845;23;20009;-71
2021/04/30 11:04:09;;;;;;;95.65;52.10;;;;;;;;;;6156366;23;20005;-72
2021/04/30 11:06:43;;;;;;;22.17;14.05;;;;;;;;;;6156187;23;20021;-72
2021/04/30 11:09:23;;;;;;;9.13;5.10;;;;;;;;;;6156273;23;20009;-75
2021/04/30 11:11:52;;;;;;;8.18;5.85;;;;;;;;;;6154234;23;20016;-73
2021/04/30 11:14:18;;;;;;;7.22;5.10;;;;;;;;;;6155324;23;20010;-72
2021/04/30 11:16:47;;;;;;;8.70;5.60;;;;;;;;;;6156483;23;19998;-71
2021/04/30 11:19:15;;;;;;;8.45;5.90;;;;;;;;;;6156052;23;20009;-71
2021/04/30 11:21:51;;;;;;;7.72;5.22;;;;;;;;;;6155674;23;20323;-72
2021/04/30 11:24:42;;;;;;;8.27;4.93;;;;;;;;;;6156398;23;20005;-71
2021/04/30 11:27:18;;;;;;;7.72;5.38;;;;;;;;;;6155962;23;20076;-72
2021/04/30 11:29:47;;;;;;;12.85;5.28;;;;;;;;;;6155953;23;20005;-70
2021/04/30 11:32:24;;;;;;;57.33;7.20;;;;;;;;;;6157268;23;20059;-71
2021/04/30 11:35:02;;;;;;;15.73;5.40;;;;;;;;;;6156927;23;20013;-71
2021/04/30 11:37:34;;;;;;;24.10;5.68;;;;;;;;;;6156024;23;20017;-71
2021/04/30 11:40:04;;;;;;;27.88;4.88;;;;;;;;;;6156170;23;20013;-71
2021/04/30 11:42:37;;;;;;;6.00;4.55;;;;;;;;;;6155552;23;20056;-71
2021/04/30 11:45:03;;;;;;;8.77;4.50;;;;;;;;;;6157580;23;20005;-71
2021/04/30 11:47:37;;;;;;;11.75;5.07;;;;;;;;;;6155623;23;20085;-70
2021/04/30 11:50:12;;;;;;;28.90;5.22;;;;;;;;;;6157094;23;20072;-69
2021/04/30 11:52:44;;;;;;;13.05;4.38;;;;;;;;;;6155870;23;20005;-69
2021/04/30 11:55:15;;;;;;;8.88;4.13;;;;;;;;;;6155269;23;20331;-71
2021/04/30 11:57:42;;;;;;;91.43;21.58;;;;;;;;;;6154907;23;20005;-70
2021/04/30 12:00:12;;;;;;;40.63;10.20;;;;;;;;;;6155880;23;20006;-70
2021/04/30 12:02:38;;;;;;;21.55;8.00;;;;;;;;;;6157127;23;20006;-70
2021/04/30 12:05:05;;;;;;;27.77;15.02;;;;;;;;;;6154962;23;20018;-71
2021/04/30 12:07:38;;;;;;;33.45;11.18;;;;;;;;;;6157141;23;20029;-71
2021/04/30 12:10:19;;;;;;;41.67;20.73;;;;;;;;;;6155743;23;20327;-72
2021/04/30 12:12:49;;;;;;;26.98;10.25;;;;;;;;;;6155234;23;20013;-69
2021/04/30 12:15:25;;;;;;;20.88;7.57;;;;;;;;;;6155824;23;20009;-69
2021/04/30 12:17:55;;;;;;;34.47;10.98;;;;;;;;;;6157461;23;20005;-71
2021/04/30 12:20:41;;;;;;;19.38;7.63;;;;;;;;;;6155468;23;20002;-71
2021/04/30 12:23:13;;;;;;;17.02;8.82;;;;;;;;;;6151076;23;20009;-70
2021/04/30 12:25:40;;;;;;;23.15;9.90;;;;;;;;;;6152790;23;20016;-69
2021/04/30 12:28:23;;;;;;;10.18;6.68;;;;;;;;;;6154874;23;20015;-72
2021/04/30 12:30:59;;;;;;;15.25;7.15;;;;;;;;;;6155466;23;20032;-72
2021/04/30 12:33:28;;;;;;;65.07;9.15;;;;;;;;;;6154388;23;20025;-71
2021/04/30 12:35:58;;;;;;;14.55;8.10;;;;;;;;;;6154800;23;20008;-71
2021/04/30 12:38:53;;;;;;;26.83;14.65;;;;;;;;;;6157183;23;20001;-75
2021/04/30 12:41:59;;;;;;;18.10;9.68;;;;;;;;;;6154720;23;20009;-72
2021/04/30 12:44:29;;;;;;;14.32;6.63;;;;;;;;;;6071042;23;20010;-71
2021/04/30 12:47:06;;;;;;;13.13;6.85;;;;;;;;;;6147113;23;20020;-71
2021/04/30 12:49:38;;;;;;;20.33;8.15;;;;;;;;;;6156896;23;20001;-72
2021/04/30 12:52:08;;;;;;;15.32;7.70;;;;;;;;;;6154644;23;20009;-72
2021/04/30 12:54:36;;;;;;;14.07;6.97;;;;;;;;;;6155409;23;20358;-72
2021/04/30 12:57:09;;;;;;;14.57;8.00;;;;;;;;;;6154471;23;20002;-71
2021/04/30 12:59:38;;;;;;;12.20;6.80;;;;;;;;;;6155111;23;20009;-72
2021/04/30 13:02:17;;;;;;;10.05;5.88;;;;;;;;;;6155974;23;20001;-73
2021/04/30 13:04:49;;;;;;;9.15;6.10;;;;;;;;;;6156652;23;20005;-73
2021/04/30 13:07:21;;;;;;;10.35;6.38;;;;;;;;;;6154262;23;20008;-73
2021/04/30 13:09:50;;;;;;;8.50;5.88;;;;;;;;;;6154860;23;20002;-71
2021/04/30 13:12:22;;;;;;;13.10;6.70;;;;;;;;;;6156868;23;20008;-71
2021/04/30 13:14:55;;;;;;;12.02;6.60;;;;;;;;;;6154793;23;20001;-72
2021/04/30 13:17:21;;;;;;;10.48;6.30;;;;;;;;;;6156207;23;20052;-70
2021/04/30 13:19:56;;;;;;;14.80;6.78;;;;;;;;;;6156251;23;20005;-72
2021/04/30 13:22:23;;;;;;;17.33;7.85;;;;;;;;;;6154814;23;20006;-72
2021/04/30 13:24:55;;;;;;;10.18;6.75;;;;;;;;;;6154321;23;20005;-74
2021/04/30 13:27:25;;;;;;;10.90;7.00;;;;;;;;;;6154865;23;20084;-72
2021/04/30 13:29:55;;;;;;;11.73;6.80;;;;;;;;;;6154199;23;20001;-71
2021/04/30 13:32:31;;;;;;;10.57;7.43;;;;;;;;;;6154505;23;20001;-71
2021/04/30 13:35:01;;;;;;;96.13;32.25;;;;;;;;;;6154651;23;20013;-71
2021/04/30 13:37:41;;;;;;;18.27;8.60;;;;;;;;;;6154727;23;20073;-72
2021/04/30 13:40:25;;;;;;;14.80;7.53;;;;;;;;;;6130424;23;20016;-72
2021/04/30 13:42:51;;;;;;;10.57;6.68;;;;;;;;;;6154955;23;20013;-71
2021/04/30 13:45:23;;;;;;;11.98;7.30;;;;;;;;;;6155015;23;20012;-72
2021/04/30 13:47:54;;;;;;;11.15;6.45;;;;;;;;;;6153568;23;20010;-71
2021/04/30 13:50:36;;;;;;;13.70;6.93;;;;;;;;;;6155842;23;20005;-72
2021/04/30 13:53:04;;;;;;;12.25;6.22;;;;;;;;;;6154523;23;20010;-70
2021/04/30 13:55:36;;;;;;;16.15;6.95;;;;;;;;;;6155934;23;20437;-72
2021/04/30 13:58:03;;;;;;;16.40;7.45;;;;;;;;;;6154817;23;20080;-73
2021/04/30 14:00:29;;;;;;;17.23;7.55;;;;;;;;;;6154627;23;20407;-71
2021/04/30 14:02:59;;;;;;;14.95;7.13;;;;;;;;;;6154507;23;20386;-72
2021/04/30 14:05:38;;;;;;;12.23;6.38;;;;;;;;;;6154199;23;20006;-72
2021/04/30 14:08:20;;;;;;;14.07;7.13;;;;;;;;;;6154564;23;20012;-71
2021/04/30 14:10:54;;;;;;;15.05;8.30;;;;;;;;;;6153008;23;20044;-71
2021/04/30 14:13:23;;;;;;;17.98;8.77;;;;;;;;;;6154296;23;20427;-72
2021/04/30 14:15:58;;;;;;;12.25;6.32;;;;;;;;;;6154325;23;20431;-73
2021/04/30 14:18:24;;;;;;;8.90;6.50;;;;;;;;;;6153465;23;20005;-73
2021/04/30 14:20:51;;;;;;;10.80;7.05;;;;;;;;;;6154225;23;20001;-72
2021/04/30 14:23:23;;;;;;;9.80;6.28;;;;;;;;;;6154480;23;20005;-71
2021/04/30 14:25:52;;;;;;;9.30;6.22;;;;;;;;;;6154450;23;20016;-72
2021/04/30 14:28:21;;;;;;;9.98;6.18;;;;;;;;;;6154492;23;20005;-74
2021/04/30 14:30:48;;;;;;;12.45;5.90;;;;;;;;;;6154534;23;20446;-71
2021/04/30 14:33:14;;;;;;;12.27;7.22;;;;;;;;;;6155800;23;20010;-72
2021/04/30 14:35:40;;;;;;;11.30;7.47;;;;;;;;;;6154314;23;20005;-72
2021/04/30 14:38:10;;;;;;;16.48;8.00;;;;;;;;;;6154672;23;20106;-72
2021/04/30 14:40:39;;;;;;;20.75;9.43;;;;;;;;;;6154320;23;20304;-72
2021/04/30 14:43:12;;;;;;;19.10;8.20;;;;;;;;;;6155976;23;20035;-73
2021/04/30 14:45:38;;;;;;;13.00;7.80;;;;;;;;;;6154109;23;20055;-72
2021/04/30 14:48:07;;;;;;;21.20;9.18;;;;;;;;;;6155082;23;20009;-73
2021/04/30 14:50:37;;;;;;;13.65;7.95;;;;;;;;;;6154209;23;20043;-73
2021/04/30 14:53:06;;;;;;;14.30;7.93;;;;;;;;;;6153702;23;20013;-74
2021/04/30 14:55:35;;;;;;;11.93;7.78;;;;;;;;;;6153699;23;20002;-73
2021/04/30 14:58:03;;;;;;;14.80;9.13;;;;;;;;;;6155537;23;20021;-72
2021/04/30 15:00:32;;;;;;;63.35;46.45;;;;;;;;;;6154301;23;20101;-72
2021/04/30 15:03:01;;;;;;;27.20;22.02;;;;;;;;;;6154536;23;20113;-69
2021/04/30 15:05:27;;;;;;;16.60;13.15;;;;;;;;;;6155645;23;20005;-69
2021/04/30 15:07:55;;;;;;;29.85;18.75;;;;;;;;;;6155965;23;20073;-69
2021/04/30 15:10:21;;;;;;;22.58;14.82;;;;;;;;;;6155645;23;20005;-70
2021/04/30 15:12:54;;;;;;;18.88;10.82;;;;;;;;;;6153490;23;20057;-70
2021/04/30 15:15:23;;;;;;;23.08;11.48;;;;;;;;;;6154236;23;20005;-70
2021/04/30 15:18:03;;;;;;;17.58;10.73;;;;;;;;;;6155797;23;20048;-74
2021/04/30 15:20:29;;;;;;;11.38;7.50;;;;;;;;;;6154171;23;20419;-71
2021/04/30 15:22:59;;;;;;;12.55;7.13;;;;;;;;;;6129330;23;20040;-71
2021/04/30 15:25:28;;;;;;;26.60;17.77;;;;;;;;;;6154486;23;20010;-71
2021/04/30 15:27:54;;;;;;;17.90;12.15;;;;;;;;;;6154171;23;20012;-72
2021/04/30 15:30:21;;;;;;;10.18;7.57;;;;;;;;;;6154502;23;20016;-70
2021/04/30 15:32:53;;;;;;;15.07;7.53;;;;;;;;;;6155623;23;20012;-72
2021/04/30 15:35:31;;;;;;;73.82;44.47;;;;;;;;;;6154494;23;20427;-73
2021/04/30 15:38:02;;;;;;;35.88;24.38;;;;;;;;;;6155611;23;20411;-72
2021/04/30 15:40:35;;;;;;;25.60;14.25;;;;;;;;;;6155552;23;20056;-70
2021/04/30 15:43:07;;;;;;;11.57;7.63;;;;;;;;;;6155416;23;20029;-71
2021/04/30 15:45:41;;;;;;;13.68;7.65;;;;;;;;;;6154782;23;20362;-72
2021/04/30 15:48:19;;;;;;;43.92;31.50;;;;;;;;;;6156285;23;20009;-71
2021/04/30 15:50:48;;;;;;;44.60;29.67;;;;;;;;;;6155750;23;20006;-72
2021/04/30 15:53:18;;;;;;;22.98;12.20;;;;;;;;;;6155730;23;20092;-72
2021/04/30 15:55:47;;;;;;;15.93;10.45;;;;;;;;;;6155690;23;20001;-72
2021/04/30 15:58:13;;;;;;;16.58;11.43;;;;;;;;;;6155790;23;20496;-73
2021/04/30 16:00:40;;;;;;;16.63;13.95;;;;;;;;;;6155389;23;20008;-73
2021/04/30 16:03:09;;;;;;;26.45;16.08;;;;;;;;;;6155504;23;20435;-73
2021/04/30 16:05:35;;;;;;;44.83;27.10;;;;;;;;;;6155352;23;20017;-73
2021/04/30 16:08:04;;;;;;;64.43;44.28;;;;;;;;;;6155529;23;20426;-73
2021/04/30 16:10:31;;;;;;;61.80;53.70;;;;;;;;;;6155250;23;20374;-74
2021/04/30 16:12:57;;;;;;;16.80;11.55;;;;;;;;;;6155440;23;20379;-74
2021/04/30 16:15:23;;;;;;;47.95;35.90;;;;;;;;;;6155480;23;20005;-73
2021/04/30 16:17:52;;;;;;;32.35;23.08;;;;;;;;;;6155523;23;20008;-72
2021/04/30 16:20:24;;;;;;;35.55;22.95;;;;;;;;;;6155710;23;20005;-72
2021/04/30 16:23:20;;;;;;;17.90;11.00;;;;;;;;;;6154894;23;20006;-72
2021/04/30 16:28:59;;;;;;;38.83;25.85;;;;;;;;;;6156515;23;20017;-72
2021/04/30 16:31:51;;;;;;;30.73;19.75;;;;;;;;;;6155173;23;20342;-72
2021/04/30 16:34:24;;;;;;;64.35;36.17;;;;;;;;;;6154560;23;20143;-72
2021/04/30 16:36:50;;;;;;;29.55;18.23;;;;;;;;;;6155303;23;20009;-72
2021/04/30 16:39:19;;;;;;;23.50;13.82;;;;;;;;;;6154600;23;20009;-72
2021/04/30 16:41:45;;;;;;;61.35;37.40;;;;;;;;;;6155178;23;20005;-73
2021/04/30 16:47:19;;;;;;;56.63;33.58;;;;;;;;;;6156594;23;20008;-73
2021/04/30 16:49:48;;;;;;;42.00;23.63;;;;;;;;;;6155158;23;20013;-73
2021/04/30 16:52:16;;;;;;;53.90;27.23;;;;;;;;;;6155161;23;20427;-73
2021/04/30 16:54:48;;;;;;;47.33;23.70;;;;;;;;;;6155044;23;20010;-73
2021/04/30 16:57:17;;;;;;;36.78;18.23;;;;;;;;;;6155303;23;20427;-74
2021/04/30 16:59:46;;;;;;;39.72;18.20;;;;;;;;;;6155198;23;20005;-73
2021/04/30 17:02:14;;;;;;;34.70;17.80;;;;;;;;;;6155007;23;20012;-73
2021/04/30 17:04:44;;;;;;;38.63;19.48;;;;;;;;;;6155133;23;20002;-76
2021/04/30 17:07:14;;;;;;;33.00;17.85;;;;;;;;;;6155099;23;20068;-75
2021/04/30 17:09:43;;;;;;;23.23;14.47;;;;;;;;;;6156402;23;20460;-75
2021/04/30 17:12:09;;;;;;;25.25;15.40;;;;;;;;;;6156223;23;20017;-75
2021/04/30 17:14:38;;;;;;;21.08;11.23;;;;;;;;;;6156632;23;20009;-75
2021/04/30 17:17:07;;;;;;;17.52;8.70;;;;;;;;;;6153789;23;20006;-72
2021/04/30 17:19:37;;;;;;;13.50;7.88;;;;;;;;;;6152859;23;20076;-73
2021/04/30 17:22:06;;;;;;;13.48;8.55;;;;;;;;;;6154158;23;20040;-72
2021/04/30 17:24:32;;;;;;;29.95;17.48;;;;;;;;;;6154962;23;20010;-72
2021/04/30 17:27:02;;;;;;;10.73;5.90;;;;;;;;;;6154701;23;20017;-72
2021/04/30 17:29:28;;;;;;;9.80;5.55;;;;;;;;;;6154024;23;20085;-76
2021/04/30 17:31:55;;;;;;;8.18;5.60;;;;;;;;;;6155422;23;20026;-74
2021/04/30 17:34:21;;;;;;;6.70;4.55;;;;;;;;;;6155163;23;20073;-73
2021/04/30 17:36:48;;;;;;;7.88;4.75;;;;;;;;;;6154921;23;20063;-74
2021/04/30 17:39:14;;;;;;;6.50;4.20;;;;;;;;;;6154859;23;20016;-73
2021/04/30 17:41:40;;;;;;;6.07;4.40;;;;;;;;;;6156221;23;20052;-72
2021/04/30 17:44:11;;;;;;;8.48;5.18;;;;;;;;;;6154638;23;20001;-70
2021/04/30 17:46:37;;;;;;;7.70;4.95;;;;;;;;;;6154507;23;20017;-72
2021/04/30 17:49:04;;;;;;;7.32;5.53;;;;;;;;;;6156093;23;20017;-71
2021/04/30 17:51:36;;;;;;;10.65;6.45;;;;;;;;;;6154761;23;20005;-71
2021/04/30 17:54:02;;;;;;;12.75;7.22;;;;;;;;;;6153613;23;20068;-72
2021/04/30 17:56:28;;;;;;;15.77;9.05;;;;;;;;;;6154935;23;20005;-73
2021/04/30 17:58:55;;;;;;;15.93;8.25;;;;;;;;;;6154895;23;20010;-72
2021/04/30 18:01:22;;;;;;;21.00;10.93;;;;;;;;;;6154730;23;20006;-71
2021/04/30 18:03:48;;;;;;;17.90;10.52;;;;;;;;;;6154651;23;20017;-71
2021/04/30 18:06:17;;;;;;;20.40;8.00;;;;;;;;;;6154235;23;20443;-73
2021/04/30 18:08:43;;;;;;;25.95;13.57;;;;;;;;;;6154602;23;20001;-73
2021/04/30 18:11:09;;;;;;;46.90;23.23;;;;;;;;;;6154445;23;20096;-72
2021/04/30 18:21:00;;;;;;;33.42;20.35;;;;;;;;;;6155781;23;20065;-69
2021/04/30 18:23:26;;;;;;;23.27;11.93;;;;;;;;;;6155953;23;20486;-70
2021/04/30 18:25:53;;;;;;;14.82;8.35;;;;;;;;;;6154320;23;20009;-70
2021/04/30 18:28:19;;;;;;;10.75;7.55;;;;;;;;;;6154156;23;20010;-70
2021/04/30 18:30:45;;;;;;;20.85;11.48;;;;;;;;;;6155899;23;20005;-71
2021/04/30 18:33:13;;;;;;;20.38;10.38;;;;;;;;;;6154102;23;20064;-71
2021/04/30 18:35:45;;;;;;;19.25;10.75;;;;;;;;;;6153474;23;20088;-71
2021/04/30 18:38:11;;;;;;;22.55;10.95;;;;;;;;;;6156176;23;20028;-71
2021/04/30 18:40:40;;;;;;;20.88;11.35;;;;;;;;;;6155738;23;19997;-70
2021/04/30 18:43:09;;;;;;;19.30;9.88;;;;;;;;;;6155900;23;20005;-69
2021/04/30 18:45:38;;;;;;;30.23;14.52;;;;;;;;;;6155740;23;20009;-71
2021/04/30 18:48:04;;;;;;;24.38;11.55;;;;;;;;;;6156027;23;20005;-72
2021/04/30 18:50:31;;;;;;;24.33;10.65;;;;;;;;;;6154283;23;20040;-71
2021/04/30 18:52:58;;;;;;;22.77;10.95;;;;;;;;;;6154608;23;20331;-69
2021/04/30 18:55:24;;;;;;;26.27;13.32;;;;;;;;;;6155708;23;20002;-70
2021/04/30 18:57:53;;;;;;;29.58;16.02;;;;;;;;;;6155909;23;20002;-70
2021/04/30 19:00:22;;;;;;;43.40;21.13;;;;;;;;;;6156203;23;20008;-70
2021/04/30 19:02:48;;;;;;;44.83;24.05;;;;;;;;;;6155865;23;20422;-69
2021/04/30 19:05:17;;;;;;;45.58;24.00;;;;;;;;;;6155445;23;20009;-71
2021/04/30 19:07:52;;;;;;;59.15;28.08;;;;;;;;;;6156159;23;20064;-73
2021/04/30 19:10:22;;;;;;;42.63;20.90;;;;;;;;;;6156263;23;20008;-72
2021/04/30 19:12:50;;;;;;;46.42;24.63;;;;;;;;;;6154630;23;20006;-70
2021/04/30 19:15:16;;;;;;;60.03;30.10;;;;;;;;;;6154410;23;20005;-71
2021/04/30 19:17:42;;;;;;;58.78;27.65;;;;;;;;;;6156343;23;20012;-70
2021/04/30 19:20:09;;;;;;;62.17;31.00;;;;;;;;;;6155714;23;20001;-71
2021/04/30 19:22:35;;;;;;;96.82;41.70;;;;;;;;;;6154689;23;20012;-71
2021/04/30 19:25:06;;;;;;;42.25;21.00;;;;;;;;;;6156219;23;20002;-71
2021/04/30 19:27:32;;;;;;;29.70;16.50;;;;;;;;;;6155556;23;20084;-71
2021/04/30 19:30:01;;;;;;;44.80;22.80;;;;;;;;;;6155922;23;20002;-71
2021/04/30 19:32:27;;;;;;;17.63;9.85;;;;;;;;;;6156004;23;20009;-71
2021/04/30 19:34:56;;;;;;;23.98;13.43;;;;;;;;;;6154390;23;20018;-73